Terminal Aerodrome Forecast
Issued by NWS

Home | Current Version | Previous Version | Text Only | Print | Product List | Glossary On
Versions: 1 2 3 4 5 6 7 8 9 10 11 12 13 14 15 16 17 18 19 20 21
878
FTUS46 KPDT 241120
TAFBDN
TAF
KBDN 241120Z 2412/2512 18008G15KT P6SM VCSH FEW030 SCT080 OVC100
     FM241800 23008G15KT P6SM VCSH SCT045 BKN070
     FM250100 21007KT P6SM SCT060 BKN100
     FM250700 21006KT P6SM BKN100=

USA.gov is the U.S. government's official web portal to all federal, state and local government web resources and services.